Current Weather

Wajir

Wajir, Kenya (HKWJ)

Report from: Saturday, July 13, 2024 9:00 PM EAT
Current time: Sunday, July 14, 2024 4:12 AM EAT

Nearby weather – Weather history – Daily summaries
Weather forecast

Temperature29.0°C (84.2°F)
Heat index30.1°C (86.2°F)
Dew point18.0°C (64.4°F)
Winds 11 kts (5.7 m/s, 12.7 mph) South (170°)
Visibility6.2 mi. (10 km)
Clouds Ceiling: Broken clouds 3,000 ft. (914 m)
Altimeter29.91 in.Hg (1013 mB)
Relative humidity52 %
Density altitude1,898 ft. (579 m)
Flight conditions Visual Meteorological Conditions
Raw dataHKWJ 131800Z 17011KT 9999 BKN030 29/18 Q1013
An error has occurred. This application may no longer respond until reloaded. Reload 🗙